Time;durP1;ratioP1;P1;durP2;ratioP2;P2;SDS_P1;SDS_P2;PMS_P1;PMS_P2;Temp;Humidity;BMP_temperature;BMP_pressure;BME280_temperature;BME280_humidity;BME280_pressure;Samples;Min_cycle;Max_cycle;Signal;HPM_P1;HPM_P2
2023/09/07 00:01:32;;;;;;;4.05;1.85;;;22.50;92.50;;;;;;5017769;28;20069;-72
2023/09/07 00:03:57;;;;;;;3.08;1.83;;;22.40;92.40;;;;;;5017840;28;20084;-72
2023/09/07 00:06:23;;;;;;;5.05;2.10;;;22.40;92.40;;;;;;5017899;28;20079;-72
2023/09/07 00:08:49;;;;;;;6.82;2.15;;;22.40;92.40;;;;;;5017827;28;20034;-72
2023/09/07 00:11:14;;;;;;;6.60;2.10;;;22.40;92.40;;;;;;5017723;28;20048;-72
2023/09/07 00:13:40;;;;;;;4.10;2.00;;;22.40;92.40;;;;;;5017738;28;20175;-72
2023/09/07 00:16:06;;;;;;;4.90;1.90;;;22.30;92.50;;;;;;5017962;28;20042;-72
2023/09/07 00:18:32;;;;;;;5.10;1.88;;;22.30;92.50;;;;;;5001280;28;20516;-72
2023/09/07 00:20:58;;;;;;;6.20;2.00;;;22.30;92.40;;;;;;5017467;28;20117;-72
2023/09/07 00:23:24;;;;;;;2.83;1.52;;;22.30;92.40;;;;;;5017487;28;20510;-72
2023/09/07 00:25:49;;;;;;;7.13;2.47;;;22.30;92.40;;;;;;5017505;28;20030;-72
2023/09/07 00:28:15;;;;;;;3.83;1.80;;;22.20;92.30;;;;;;5017746;28;20555;-72
2023/09/07 00:30:41;;;;;;;6.65;2.40;;;22.20;92.50;;;;;;5017235;28;20464;-72
2023/09/07 00:33:07;;;;;;;5.03;2.00;;;22.10;92.50;;;;;;5001143;28;20083;-72
2023/09/07 00:35:34;;;;;;;4.20;2.00;;;22.10;92.50;;;;;;5017840;28;20041;-72
2023/09/07 00:37:59;;;;;;;6.88;1.95;;;22.10;92.50;;;;;;5017222;28;20051;-72
2023/09/07 00:40:26;;;;;;;5.00;2.22;;;22.10;92.50;;;;;;5017163;28;20034;-72
2023/09/07 00:42:52;;;;;;;8.18;2.00;;;22.10;92.50;;;;;;5017163;28;20045;-73
2023/09/07 00:45:17;;;;;;;4.80;1.95;;;22.10;92.50;;;;;;5017322;28;20044;-73
2023/09/07 00:47:43;;;;;;;7.38;2.15;;;22.10;92.60;;;;;;5017011;28;20413;-72
2023/09/07 00:50:09;;;;;;;4.55;1.90;;;22.00;92.70;;;;;;5016951;28;20037;-72
2023/09/07 00:52:39;;;;;;;4.28;1.85;;;22.00;92.80;;;;;;5016947;28;20052;-72
2023/09/07 00:55:05;;;;;;;4.55;2.10;;;22.00;92.80;;;;;;5017173;28;20124;-72
2023/09/07 00:57:32;;;;;;;4.47;2.10;;;22.00;92.80;;;;;;5016512;28;20044;-72
2023/09/07 00:59:57;;;;;;;8.55;2.15;;;21.90;92.70;;;;;;5017017;28;20433;-72
2023/09/07 01:02:23;;;;;;;7.28;2.13;;;21.90;92.80;;;;;;5016742;28;20505;-72
2023/09/07 01:04:51;;;;;;;4.88;2.10;;;21.90;92.80;;;;;;5017024;28;20127;-72
2023/09/07 01:07:30;;;;;;;7.93;2.30;;;21.90;92.80;;;;;;5016955;28;20037;-72
2023/09/07 01:09:59;;;;;;;3.72;2.20;;;21.90;92.70;;;;;;5016955;28;20064;-72
2023/09/07 01:12:24;;;;;;;5.00;1.98;;;21.90;92.90;;;;;;5016753;28;20045;-72
2023/09/07 01:14:50;;;;;;;4.95;2.17;;;21.80;92.90;;;;;;5016840;28;20409;-72
2023/09/07 01:17:16;;;;;;;7.82;2.05;;;21.80;92.80;;;;;;5016788;28;20042;-72
2023/09/07 01:19:42;;;;;;;7.53;2.53;;;21.80;92.80;;;;;;5016629;28;20397;-72
2023/09/07 01:22:09;;;;;;;3.90;2.13;;;21.80;92.90;;;;;;5016310;28;20525;-71
2023/09/07 01:24:37;;;;;;;5.97;2.33;;;21.70;92.80;;;;;;5016338;28;20048;-71
2023/09/07 01:27:04;;;;;;;5.00;1.95;;;21.70;92.90;;;;;;5016317;28;20049;-71
2023/09/07 01:29:30;;;;;;;7.68;2.22;;;21.70;92.90;;;;;;5016176;28;20452;-71
2023/09/07 01:31:56;;;;;;;4.70;2.00;;;21.70;92.80;;;;;;5016022;28;20383;-71
2023/09/07 01:34:23;;;;;;;3.75;2.10;;;21.70;92.90;;;;;;5016197;28;20045;-71
2023/09/07 01:36:49;;;;;;;3.75;1.83;;;21.70;93.00;;;;;;5016413;28;20378;-71
2023/09/07 01:39:16;;;;;;;4.40;2.13;;;21.60;93.00;;;;;;5016088;28;20413;-71
2023/09/07 01:41:42;;;;;;;5.55;2.50;;;21.60;93.10;;;;;;4999647;28;20135;-71
2023/09/07 01:44:07;;;;;;;4.65;2.40;;;21.50;93.10;;;;;;5016004;28;20485;-71
2023/09/07 01:46:33;;;;;;;4.45;2.20;;;21.50;93.10;;;;;;5016237;28;20045;-71
2023/09/07 01:48:59;;;;;;;7.00;2.10;;;21.50;93.10;;;;;;5015906;28;20038;-71
2023/09/07 01:51:27;;;;;;;8.27;2.33;;;21.50;93.10;;;;;;5015884;28;20041;-71
2023/09/07 01:53:53;;;;;;;3.53;2.50;;;21.50;93.20;;;;;;5015920;28;20506;-71
2023/09/07 01:56:19;;;;;;;4.20;2.35;;;21.40;93.20;;;;;;5015867;28;20095;-71
2023/09/07 01:58:45;;;;;;;4.72;2.42;;;21.40;93.30;;;;;;5015841;28;20104;-71
2023/09/07 02:01:40;;;;;;;4.00;2.63;;;21.40;93.50;;;;;;5015805;28;20067;-71
2023/09/07 02:04:06;;;;;;;4.93;2.10;;;21.40;93.50;;;;;;4918403;29;20123;-71
2023/09/07 02:06:32;;;;;;;4.57;2.25;;;21.30;93.70;;;;;;4918317;29;20126;-71
2023/09/07 02:08:57;;;;;;;7.28;2.20;;;21.30;93.80;;;;;;4933633;29;20110;-71
2023/09/07 02:11:23;;;;;;;4.15;1.98;;;21.30;93.90;;;;;;4934173;29;20051;-71
2023/09/07 02:13:49;;;;;;;4.97;2.17;;;21.30;93.80;;;;;;4918238;29;20473;-71
2023/09/07 02:16:14;;;;;;;3.95;2.40;;;21.20;93.90;;;;;;4918192;29;20043;-71
2023/09/07 02:18:43;;;;;;;6.38;2.42;;;21.20;94.10;;;;;;4918394;29;20058;-71
2023/09/07 02:21:09;;;;;;;5.43;2.20;;;21.20;94.20;;;;;;4917985;29;20052;-71
2023/09/07 02:23:37;;;;;;;6.72;2.55;;;21.10;94.20;;;;;;4918111;29;20039;-71
2023/09/07 02:26:02;;;;;;;6.22;2.40;;;21.10;94.20;;;;;;4918044;29;20046;-71
2023/09/07 02:28:28;;;;;;;7.18;2.40;;;21.10;94.40;;;;;;4918032;29;20138;-71
2023/09/07 02:30:54;;;;;;;6.05;2.40;;;21.10;94.60;;;;;;4917813;29;20149;-71
2023/09/07 02:33:20;;;;;;;4.57;2.47;;;21.00;94.70;;;;;;4902486;29;20099;-71
2023/09/07 02:35:47;;;;;;;5.97;2.10;;;21.00;94.60;;;;;;4917980;29;20520;-71
2023/09/07 02:38:13;;;;;;;5.68;2.45;;;21.00;94.70;;;;;;4917951;29;20141;-71
2023/09/07 02:40:42;;;;;;;7.20;2.22;;;21.00;94.90;;;;;;4982219;28;20184;-71
2023/09/07 02:43:09;;;;;;;7.85;2.97;;;20.90;95.10;;;;;;5015224;28;20049;-71
2023/09/07 02:45:35;;;;;;;5.95;2.70;;;20.90;95.20;;;;;;5015484;28;20573;-71
2023/09/07 02:48:00;;;;;;;4.63;2.10;;;20.80;95.30;;;;;;5015508;28;20117;-71
2023/09/07 02:50:26;;;;;;;5.55;2.08;;;20.80;95.50;;;;;;5015143;28;20484;-71
2023/09/07 02:52:52;;;;;;;7.35;2.88;;;20.80;95.50;;;;;;5015191;28;20077;-71
2023/09/07 02:55:17;;;;;;;7.00;2.65;;;20.80;95.60;;;;;;5015163;28;20132;-71
2023/09/07 02:57:43;;;;;;;6.35;2.47;;;20.70;96.10;;;;;;5015133;28;20041;-71
2023/09/07 03:00:09;;;;;;;4.75;2.33;;;20.60;95.90;;;;;;5015013;28;20041;-71
2023/09/07 03:02:35;;;;;;;7.35;2.60;;;20.60;96.10;;;;;;5015039;28;20465;-71
2023/09/07 03:05:01;;;;;;;4.45;2.60;;;20.60;96.20;;;;;;5015052;28;20048;-71
2023/09/07 03:07:30;;;;;;;6.85;2.63;;;20.50;96.30;;;;;;5015065;28;20048;-71
2023/09/07 03:09:56;;;;;;;3.20;2.63;;;20.50;96.40;;;;;;5015048;28;20045;-71
2023/09/07 03:12:21;;;;;;;2.72;2.33;;;20.50;96.30;;;;;;4998576;28;20029;-71
2023/09/07 03:14:48;;;;;;;6.28;2.78;;;20.50;96.50;;;;;;5015027;28;20041;-72
2023/09/07 03:17:16;;;;;;;4.82;2.85;;;20.50;96.60;;;;;;5015223;28;20065;-72
2023/09/07 03:19:41;;;;;;;7.32;3.25;;;20.40;96.70;;;;;;5015439;28;20037;-72
2023/09/07 03:22:07;;;;;;;7.18;2.70;;;20.40;96.90;;;;;;5018907;28;20044;-72
2023/09/07 03:24:32;;;;;;;7.18;2.90;;;20.40;97.00;;;;;;5018611;28;20410;-72
2023/09/07 03:26:58;;;;;;;7.20;2.80;;;20.40;97.00;;;;;;5036836;28;20095;-72
2023/09/07 03:29:24;;;;;;;5.32;2.38;;;20.30;97.00;;;;;;5018563;28;20041;-72
2023/09/07 03:31:50;;;;;;;7.55;2.90;;;20.30;97.00;;;;;;5018311;28;20041;-72
2023/09/07 03:34:16;;;;;;;7.70;3.08;;;20.30;97.20;;;;;;5018709;28;20045;-72
2023/09/07 03:36:41;;;;;;;4.25;2.70;;;20.30;97.10;;;;;;5002066;28;20044;-72
2023/09/07 03:39:07;;;;;;;5.13;2.78;;;20.30;97.10;;;;;;5018403;28;20121;-72
2023/09/07 03:41:34;;;;;;;4.90;2.95;;;20.30;97.50;;;;;;5018178;28;20045;-72
2023/09/07 03:44:00;;;;;;;6.50;3.00;;;20.30;97.20;;;;;;5018278;28;20048;-72
2023/09/07 03:46:26;;;;;;;5.93;2.85;;;20.20;97.30;;;;;;5018202;28;20034;-72
2023/09/07 03:48:52;;;;;;;8.55;2.47;;;20.20;97.30;;;;;;5018449;28;20062;-72
2023/09/07 03:51:18;;;;;;;6.20;2.95;;;20.20;97.30;;;;;;5018397;28;20513;-73
2023/09/07 03:53:43;;;;;;;7.22;3.00;;;20.20;97.40;;;;;;5018402;28;20600;-73
2023/09/07 03:56:09;;;;;;;6.78;2.78;;;20.20;97.70;;;;;;5018092;28;20068;-73
2023/09/07 03:58:34;;;;;;;4.45;2.90;;;20.20;97.40;;;;;;5018309;28;20069;-73
2023/09/07 04:01:00;;;;;;;7.43;3.00;;;20.20;97.50;;;;;;5018120;28;20037;-73
2023/09/07 04:03:26;;;;;;;12.88;3.38;;;20.10;97.50;;;;;;5017950;28;20033;-73
2023/09/07 04:05:51;;;;;;;4.00;3.13;;;20.10;97.50;;;;;;5018118;28;20033;-73
2023/09/07 04:08:17;;;;;;;4.68;2.53;;;20.10;97.30;;;;;;5018164;28;20030;-73
2023/09/07 04:10:42;;;;;;;5.75;2.90;;;20.10;97.30;;;;;;5002096;28;20041;-72
2023/09/07 04:13:08;;;;;;;6.43;3.20;;;20.10;97.30;;;;;;5017779;28;20413;-73
2023/09/07 04:15:40;;;;;;;6.30;3.38;;;20.10;97.40;;;;;;5017929;28;20073;-73
2023/09/07 04:18:06;;;;;;;6.70;3.17;;;20.10;97.50;;;;;;5017709;28;20045;-73
2023/09/07 04:20:32;;;;;;;6.63;3.30;;;20.00;97.50;;;;;;5017451;28;20041;-73
2023/09/07 04:22:57;;;;;;;5.97;3.13;;;20.00;97.60;;;;;;5017540;28;20228;-73
2023/09/07 04:25:23;;;;;;;3.88;2.90;;;20.00;97.60;;;;;;5017806;28;20052;-73
2023/09/07 04:27:48;;;;;;;7.28;3.60;;;20.00;97.70;;;;;;5017739;28;20490;-72
2023/09/07 04:30:14;;;;;;;4.35;3.05;;;19.90;97.70;;;;;;5017332;28;20490;-72
2023/09/07 04:32:40;;;;;;;5.85;2.85;;;19.90;97.80;;;;;;5016915;28;20041;-72
2023/09/07 04:35:06;;;;;;;7.22;2.90;;;19.80;97.90;;;;;;5001061;28;20564;-72
2023/09/07 04:37:31;;;;;;;10.13;2.80;;;19.80;98.10;;;;;;5017490;28;20128;-72
2023/09/07 04:39:57;;;;;;;7.82;3.10;;;19.80;98.40;;;;;;5017175;28;20537;-73
2023/09/07 04:42:22;;;;;;;5.82;3.10;;;19.70;98.40;;;;;;5017187;28;20068;-73
2023/09/07 04:44:48;;;;;;;5.20;3.30;;;19.60;98.80;;;;;;5017147;28;20064;-73
2023/09/07 04:47:17;;;;;;;4.00;2.83;;;19.60;99.10;;;;;;5017111;28;20123;-72
2023/09/07 04:49:48;;;;;;;8.05;3.30;;;19.50;99.20;;;;;;5017026;28;20044;-72
2023/09/07 04:52:13;;;;;;;4.55;2.92;;;19.50;99.50;;;;;;5017016;28;20084;-72
2023/09/07 04:54:39;;;;;;;6.80;3.97;;;19.40;99.60;;;;;;5017192;28;20033;-72
2023/09/07 04:57:04;;;;;;;8.60;2.80;;;19.40;99.90;;;;;;5016944;28;20037;-72
2023/09/07 04:59:30;;;;;;;5.75;2.90;;;19.30;99.90;;;;;;5016876;28;20096;-72
2023/09/07 05:01:59;;;;;;;5.38;2.95;;;19.20;99.90;;;;;;5016662;28;20493;-72
2023/09/07 05:04:24;;;;;;;7.22;3.33;;;19.20;99.90;;;;;;5016763;28;20498;-72
2023/09/07 05:06:50;;;;;;;5.50;2.92;;;19.20;99.90;;;;;;5016981;28;20034;-72
2023/09/07 05:09:16;;;;;;;4.78;3.10;;;19.10;99.90;;;;;;5016697;28;20452;-72
2023/09/07 05:11:41;;;;;;;6.13;3.22;;;19.10;99.90;;;;;;5016582;28;20033;-72
2023/09/07 05:14:07;;;;;;;7.05;3.10;;;19.00;99.90;;;;;;5016593;28;20037;-72
2023/09/07 05:16:32;;;;;;;5.93;3.05;;;19.00;99.90;;;;;;5016583;28;20041;-72
2023/09/07 05:18:58;;;;;;;7.05;3.30;;;19.00;99.90;;;;;;5016499;28;20053;-72
2023/09/07 05:21:23;;;;;;;5.45;3.08;;;19.00;99.90;;;;;;5016438;28;20049;-72
2023/09/07 05:23:49;;;;;;;5.15;3.30;;;19.00;99.90;;;;;;5016669;28;20042;-72
2023/09/07 05:26:20;;;;;;;6.95;3.50;;;19.00;99.90;;;;;;5016340;28;20397;-72
2023/09/07 05:28:45;;;;;;;7.78;3.83;;;19.00;99.90;;;;;;5016331;28;20034;-72
2023/09/07 05:31:11;;;;;;;4.78;3.05;;;19.00;99.90;;;;;;5016106;28;20045;-72
2023/09/07 05:33:36;;;;;;;7.32;3.65;;;19.00;99.90;;;;;;5016275;28;20055;-72
2023/09/07 05:36:02;;;;;;;5.95;3.83;;;19.00;99.90;;;;;;5016209;28;20045;-72
2023/09/07 05:38:28;;;;;;;7.13;4.10;;;19.10;99.90;;;;;;5016188;28;20454;-71
2023/09/07 05:40:54;;;;;;;4.70;3.50;;;19.10;99.90;;;;;;5016139;28;20041;-71
2023/09/07 05:43:20;;;;;;;8.68;3.45;;;19.20;99.90;;;;;;5015194;28;20040;-72
2023/09/07 05:45:47;;;;;;;6.05;3.30;;;19.20;99.90;;;;;;5016047;28;20543;-75
2023/09/07 05:48:13;;;;;;;6.20;3.80;;;19.20;99.90;;;;;;5016069;28;20513;-75
2023/09/07 05:50:40;;;;;;;8.57;3.70;;;19.30;99.90;;;;;;5016287;28;20044;-74
2023/09/07 05:53:06;;;;;;;5.70;3.70;;;19.40;99.90;;;;;;4999544;28;20560;-75
2023/09/07 05:55:31;;;;;;;7.40;4.05;;;19.40;99.90;;;;;;5016222;28;20132;-75
2023/09/07 05:57:58;;;;;;;7.20;3.75;;;19.50;99.90;;;;;;4999483;28;20037;-75
2023/09/07 06:00:23;;;;;;;5.68;3.42;;;19.50;99.90;;;;;;5015938;28;20045;-75
2023/09/07 06:02:49;;;;;;;6.30;3.85;;;19.60;99.90;;;;;;5015863;28;20447;-75
2023/09/07 06:05:16;;;;;;;5.68;3.72;;;19.60;99.90;;;;;;5015731;28;20072;-75
2023/09/07 06:07:41;;;;;;;6.43;3.70;;;19.70;99.90;;;;;;4999465;28;20045;-75
2023/09/07 06:10:07;;;;;;;6.85;4.00;;;19.70;99.90;;;;;;5016111;28;20075;-75
2023/09/07 06:12:33;;;;;;;9.93;4.10;;;19.80;99.80;;;;;;5015873;28;20038;-75
2023/09/07 06:15:02;;;;;;;6.13;4.07;;;19.90;99.80;;;;;;4999319;28;20084;-75
2023/09/07 06:17:29;;;;;;;9.70;4.03;;;19.90;99.60;;;;;;5015566;28;20080;-75
2023/09/07 06:19:55;;;;;;;9.18;3.80;;;20.00;99.70;;;;;;5015716;28;20091;-74
2023/09/07 06:22:20;;;;;;;6.57;3.60;;;20.00;99.60;;;;;;5015703;28;20512;-74
2023/09/07 06:24:46;;;;;;;5.70;3.53;;;20.00;99.50;;;;;;5015842;28;20033;-74
2023/09/07 06:27:11;;;;;;;5.75;3.53;;;20.00;99.50;;;;;;5015443;28;20167;-74
2023/09/07 06:29:37;;;;;;;4.95;3.65;;;20.10;99.50;;;;;;4999116;28;20037;-74
2023/09/07 06:32:03;;;;;;;5.00;3.70;;;20.10;99.30;;;;;;5015279;28;20046;-74
2023/09/07 06:34:28;;;;;;;7.32;3.80;;;20.20;99.40;;;;;;5015376;28;20041;-74
2023/09/07 06:36:54;;;;;;;7.93;3.60;;;20.30;99.40;;;;;;5015401;28;20061;-74
2023/09/07 06:39:20;;;;;;;5.30;3.67;;;20.30;99.30;;;;;;5015646;28;20041;-75
2023/09/07 06:41:46;;;;;;;4.82;3.60;;;20.30;99.20;;;;;;5015290;28;20453;-75
2023/09/07 06:44:12;;;;;;;9.02;4.07;;;20.40;98.90;;;;;;5015516;28;20043;-76
2023/09/07 06:46:37;;;;;;;8.02;4.00;;;20.40;98.90;;;;;;5015411;28;20029;-76
2023/09/07 06:49:03;;;;;;;6.60;3.90;;;20.50;98.80;;;;;;5015290;28;20037;-75
2023/09/07 06:51:30;;;;;;;5.72;3.80;;;20.50;98.70;;;;;;5015614;28;20045;-75
2023/09/07 06:53:56;;;;;;;6.53;3.97;;;20.50;98.50;;;;;;5015254;28;20073;-76
2023/09/07 06:56:22;;;;;;;5.90;3.65;;;20.60;98.40;;;;;;5018804;28;20079;-74
2023/09/07 06:58:48;;;;;;;6.63;3.42;;;20.60;98.10;;;;;;5020009;28;20420;-74
2023/09/07 07:01:13;;;;;;;7.78;3.78;;;20.70;98.00;;;;;;5019026;28;20050;-74
2023/09/07 07:03:39;;;;;;;7.95;3.65;;;20.70;97.80;;;;;;5020204;28;20088;-74
2023/09/07 07:06:04;;;;;;;6.80;3.33;;;20.80;97.50;;;;;;5019106;28;20410;-74
2023/09/07 07:08:30;;;;;;;4.90;3.33;;;20.90;97.50;;;;;;5019502;28;20068;-74
2023/09/07 07:10:56;;;;;;;5.55;3.58;;;20.90;97.10;;;;;;5018915;28;20052;-73
2023/09/07 07:13:21;;;;;;;5.53;3.28;;;21.00;97.00;;;;;;5018965;28;20049;-73
2023/09/07 07:15:47;;;;;;;7.75;3.40;;;21.00;97.00;;;;;;5002690;28;20044;-72
2023/09/07 07:18:12;;;;;;;5.55;3.13;;;21.10;97.00;;;;;;5018896;28;20048;-73
2023/09/07 07:20:40;;;;;;;6.32;3.10;;;21.10;96.90;;;;;;5018742;28;20045;-73
2023/09/07 07:23:08;;;;;;;4.93;3.42;;;21.20;96.70;;;;;;5018976;28;20041;-73
2023/09/07 07:25:34;;;;;;;8.00;3.40;;;21.30;96.50;;;;;;5018884;28;20045;-73
2023/09/07 07:28:03;;;;;;;4.32;3.25;;;21.40;96.40;;;;;;5002487;28;20033;-73
2023/09/07 07:30:29;;;;;;;6.57;3.45;;;21.40;96.10;;;;;;5018601;28;20049;-73
2023/09/07 07:32:56;;;;;;;8.65;3.45;;;21.50;96.00;;;;;;5018527;28;20410;-73
2023/09/07 07:35:22;;;;;;;5.90;3.00;;;21.60;95.90;;;;;;5018614;28;20041;-73
2023/09/07 07:37:49;;;;;;;5.95;2.95;;;21.70;95.60;;;;;;5018790;28;20040;-73
2023/09/07 07:40:15;;;;;;;5.22;3.03;;;21.70;95.20;;;;;;5018244;28;20045;-73
2023/09/07 07:42:40;;;;;;;5.03;3.63;;;21.80;95.10;;;;;;5018314;28;20044;-72
2023/09/07 07:45:06;;;;;;;5.25;3.30;;;21.90;95.20;;;;;;5018388;28;20049;-72
2023/09/07 07:47:32;;;;;;;7.65;3.00;;;22.00;94.90;;;;;;5018378;28;20048;-72
2023/09/07 07:49:58;;;;;;;6.00;3.38;;;22.10;94.90;;;;;;5018784;28;20034;-72
2023/09/07 07:52:23;;;;;;;6.75;2.88;;;22.20;94.50;;;;;;5002090;28;20509;-74
2023/09/07 07:54:49;;;;;;;5.00;3.20;;;22.30;94.30;;;;;;5018135;28;20417;-74
2023/09/07 07:57:14;;;;;;;6.75;2.92;;;22.40;93.90;;;;;;5018134;28;20029;-74
2023/09/07 07:59:40;;;;;;;7.07;3.17;;;22.50;94.00;;;;;;5018395;28;20095;-74
2023/09/07 08:02:06;;;;;;;7.38;3.13;;;22.70;93.70;;;;;;5017932;28;20379;-74
2023/09/07 08:04:32;;;;;;;4.00;2.83;;;22.80;93.20;;;;;;5018000;28;20073;-75
2023/09/07 08:07:03;;;;;;;5.40;2.80;;;22.90;92.70;;;;;;5016884;28;20034;-75
2023/09/07 08:09:29;;;;;;;5.00;3.08;;;23.10;92.20;;;;;;5018200;28;20041;-75
2023/09/07 08:11:55;;;;;;;8.70;3.42;;;23.20;92.00;;;;;;5017997;28;20163;-75
2023/09/07 08:14:22;;;;;;;5.03;3.10;;;23.30;92.10;;;;;;5017786;28;20041;-75
2023/09/07 08:16:48;;;;;;;4.93;3.15;;;23.40;90.90;;;;;;5017689;28;20513;-75
2023/09/07 08:19:14;;;;;;;4.40;2.70;;;23.60;90.70;;;;;;5017681;28;20045;-75
2023/09/07 08:21:41;;;;;;;4.57;3.08;;;23.80;90.60;;;;;;5017533;28;20056;-75
2023/09/07 08:24:08;;;;;;;5.35;2.50;;;23.90;90.00;;;;;;5017646;28;20083;-75
2023/09/07 08:26:33;;;;;;;5.20;3.40;;;24.00;89.10;;;;;;5017611;28;20045;-75
2023/09/07 08:28:59;;;;;;;6.05;3.00;;;24.20;88.60;;;;;;5017453;28;20044;-75
2023/09/07 08:31:26;;;;;;;4.28;2.95;;;24.40;88.00;;;;;;5000988;28;20049;-75
2023/09/07 08:33:51;;;;;;;6.03;3.35;;;24.60;87.10;;;;;;5001339;28;20060;-75
2023/09/07 08:36:17;;;;;;;5.72;3.20;;;24.80;85.30;;;;;;5017439;28;20490;-75
2023/09/07 08:38:43;;;;;;;5.13;3.20;;;24.90;85.30;;;;;;5017322;28;20135;-75
2023/09/07 08:41:08;;;;;;;4.07;2.53;;;25.20;84.90;;;;;;5001069;28;20048;-75
2023/09/07 08:43:42;;;;;;;5.78;3.00;;;25.40;83.00;;;;;;5017272;28;20608;-75
2023/09/07 08:46:30;;;;;;;8.40;2.83;;;25.50;80.90;;;;;;5017237;28;20046;-75
2023/09/07 08:48:59;;;;;;;8.02;3.15;;;25.80;80.10;;;;;;5017181;28;20047;-75
2023/09/07 08:51:27;;;;;;;3.50;2.88;;;26.00;79.30;;;;;;5017107;28;20098;-75
2023/09/07 08:53:53;;;;;;;6.57;2.67;;;26.30;79.10;;;;;;5017102;28;20044;-75
2023/09/07 08:56:21;;;;;;;7.30;2.70;;;26.40;78.10;;;;;;5017057;28;20049;-75
2023/09/07 08:58:49;;;;;;;9.00;2.80;;;26.70;77.40;;;;;;5017248;28;20047;-75
2023/09/07 09:01:15;;;;;;;4.07;2.83;;;27.00;76.30;;;;;;5016927;28;20046;-75
2023/09/07 09:03:42;;;;;;;3.42;2.38;;;27.20;75.80;;;;;;5016886;28;20124;-75
2023/09/07 09:06:09;;;;;;;4.45;2.85;;;27.40;74.30;;;;;;5016793;28;20034;-75
2023/09/07 09:08:49;;;;;;;3.42;2.60;;;27.50;72.80;;;;;;5016757;28;20045;-75
2023/09/07 09:11:17;;;;;;;7.68;3.25;;;27.70;72.30;;;;;;5016894;28;20136;-75
2023/09/07 09:13:43;;;;;;;4.90;2.90;;;27.80;70.60;;;;;;5016675;28;20129;-75
2023/09/07 09:16:09;;;;;;;6.85;2.90;;;27.90;70.40;;;;;;5000275;28;20076;-75
2023/09/07 09:18:35;;;;;;;4.97;3.03;;;28.10;69.90;;;;;;5016408;28;20046;-75
2023/09/07 09:21:02;;;;;;;4.18;2.70;;;28.30;69.80;;;;;;5016786;28;20125;-75
2023/09/07 09:23:36;;;;;;;4.78;2.58;;;28.40;69.30;;;;;;5016517;28;20570;-75
2023/09/07 09:26:03;;;;;;;6.15;3.35;;;28.60;69.20;;;;;;5017571;28;20171;-75
2023/09/07 09:28:31;;;;;;;4.97;2.92;;;28.80;67.80;;;;;;5016437;28;20057;-75
2023/09/07 09:30:58;;;;;;;6.95;3.08;;;28.90;67.50;;;;;;5016173;28;20477;-75
2023/09/07 09:33:25;;;;;;;4.95;3.10;;;29.00;66.30;;;;;;5000077;28;20128;-75
2023/09/07 09:35:53;;;;;;;6.80;3.10;;;29.10;66.30;;;;;;5016322;28;20041;-75
2023/09/07 09:38:19;;;;;;;4.50;3.08;;;29.30;66.80;;;;;;5016286;28;20049;-75
2023/09/07 09:40:45;;;;;;;7.53;3.10;;;29.40;65.40;;;;;;5016247;28;20096;-75
2023/09/07 09:43:12;;;;;;;5.47;2.80;;;29.60;65.10;;;;;;5016173;28;20513;-75
2023/09/07 09:45:38;;;;;;;5.57;2.97;;;29.80;64.50;;;;;;5016418;28;20124;-75
2023/09/07 09:48:06;;;;;;;4.82;3.10;;;29.90;63.70;;;;;;5016370;28;20041;-75
2023/09/07 09:50:33;;;;;;;9.98;3.28;;;30.10;63.80;;;;;;5016208;28;20124;-75
2023/09/07 09:53:00;;;;;;;5.22;2.92;;;30.30;63.20;;;;;;5015987;28;20125;-75
2023/09/07 09:55:26;;;;;;;7.60;3.03;;;30.40;63.60;;;;;;5015976;28;20041;-76
2023/09/07 09:57:51;;;;;;;5.95;2.67;;;30.60;63.50;;;;;;5015892;28;20099;-76
2023/09/07 10:02:48;;;;;;;4.50;2.97;;;30.90;61.90;;;;;;5015869;28;20050;-76
2023/09/07 10:05:14;;;;;;;4.93;2.75;;;31.10;60.50;;;;;;5015856;28;20382;-76
2023/09/07 10:07:45;;;;;;;5.07;3.05;;;31.10;61.10;;;;;;5015717;28;20116;-76
2023/09/07 10:10:14;;;;;;;6.65;2.65;;;31.20;60.00;;;;;;5015766;28;20409;-76
2023/09/07 10:12:41;;;;;;;4.15;2.50;;;31.30;59.60;;;;;;5015874;28;20041;-76
2023/09/07 10:15:19;;;;;;;6.10;3.03;;;31.50;60.30;;;;;;5015728;28;20037;-77
2023/09/07 10:17:46;;;;;;;6.10;2.60;;;31.60;60.40;;;;;;5015889;28;20129;-77
2023/09/07 10:20:12;;;;;;;6.57;2.75;;;31.70;59.80;;;;;;5015756;28;20041;-77
2023/09/07 10:22:37;;;;;;;3.70;2.80;;;31.80;59.80;;;;;;5015465;28;20421;-77
2023/09/07 10:25:03;;;;;;;5.53;2.75;;;31.90;58.60;;;;;;4999460;28;20041;-77
2023/09/07 10:27:38;;;;;;;4.53;2.65;;;32.00;58.50;;;;;;4999089;28;20472;-77
2023/09/07 10:30:10;;;;;;;4.43;2.60;;;32.00;57.80;;;;;;5015196;28;20052;-77
2023/09/07 10:32:40;;;;;;;4.47;2.80;;;32.20;59.00;;;;;;5015359;28;20034;-76
2023/09/07 10:35:18;;;;;;;6.03;2.78;;;32.30;57.80;;;;;;4999201;28;20030;-76
2023/09/07 10:37:47;;;;;;;8.63;2.97;;;32.30;56.70;;;;;;5015452;28;20115;-76
2023/09/07 10:40:18;;;;;;;6.90;2.80;;;32.30;56.80;;;;;;5015285;28;20105;-76
2023/09/07 10:42:43;;;;;;;6.43;2.93;;;32.30;56.40;;;;;;5015621;28;20037;-76
2023/09/07 10:45:16;;;;;;;4.10;2.72;;;32.30;56.10;;;;;;5015652;28;20030;-76
2023/09/07 10:47:42;;;;;;;;;;;32.30;55.00;;;;;;4999717;28;20128;-76
2023/09/07 10:50:10;;;;;;;7.63;2.70;;;32.30;55.30;;;;;;5015524;28;20336;-76
2023/09/07 10:52:36;;;;;;;5.22;2.67;;;32.40;54.80;;;;;;5015125;28;20041;-76
2023/09/07 10:55:02;;;;;;;4.05;2.75;;;32.50;55.50;;;;;;5015445;28;20044;-76
2023/09/07 10:57:27;;;;;;;6.13;3.05;;;32.70;55.30;;;;;;4998926;28;20041;-76
2023/09/07 10:59:55;;;;;;;4.43;2.78;;;32.80;54.60;;;;;;5015174;28;20045;-76
2023/09/07 11:02:20;;;;;;;6.18;2.67;;;32.80;53.90;;;;;;4998698;28;20088;-76
2023/09/07 11:04:46;;;;;;;4.13;2.50;;;32.80;54.70;;;;;;5015127;28;20034;-76
2023/09/07 11:07:12;;;;;;;5.72;2.70;;;33.00;55.60;;;;;;5015196;28;20038;-76
2023/09/07 11:09:42;;;;;;;8.13;2.85;;;33.10;55.60;;;;;;5015346;28;20048;-76
2023/09/07 11:12:08;;;;;;;9.27;2.90;;;33.30;55.30;;;;;;5015047;28;20041;-76
2023/09/07 11:14:34;;;;;;;4.97;3.30;;;33.40;55.30;;;;;;5015390;28;20088;-76
2023/09/07 11:17:03;;;;;;;6.10;2.70;;;33.60;56.80;;;;;;5014995;28;20461;-76
2023/09/07 11:19:32;;;;;;;4.03;2.70;;;33.60;54.00;;;;;;4998748;28;20083;-76
2023/09/07 11:21:58;;;;;;;3.47;2.47;;;33.70;53.60;;;;;;4998630;28;20382;-76
2023/09/07 11:24:24;;;;;;;5.10;2.65;;;33.60;53.30;;;;;;5015028;28;20551;-76
2023/09/07 11:26:49;;;;;;;6.07;2.88;;;33.60;54.00;;;;;;4998814;28;20068;-76
2023/09/07 11:29:16;;;;;;;7.15;2.90;;;33.70;53.80;;;;;;5014943;28;20486;-75
2023/09/07 11:31:43;;;;;;;3.97;2.72;;;33.70;54.50;;;;;;5014699;28;20060;-75
2023/09/07 11:34:10;;;;;;;5.05;2.60;;;33.80;53.40;;;;;;5014960;28;20034;-76
2023/09/07 11:36:36;;;;;;;9.07;2.95;;;33.90;52.50;;;;;;5014965;28;20037;-76
2023/09/07 11:39:10;;;;;;;3.25;2.70;;;34.00;52.60;;;;;;5015236;28;20129;-76
2023/09/07 11:41:36;;;;;;;5.63;2.65;;;34.20;52.70;;;;;;5016963;28;20103;-76
2023/09/07 11:44:01;;;;;;;4.60;2.72;;;34.30;53.00;;;;;;5018773;28;20458;-76
2023/09/07 11:46:27;;;;;;;4.68;2.90;;;34.50;52.40;;;;;;5018367;28;20044;-76
2023/09/07 11:48:52;;;;;;;4.57;3.10;;;34.50;51.30;;;;;;5018249;28;20036;-73
2023/09/07 11:51:18;;;;;;;3.20;2.33;;;34.50;51.50;;;;;;5018178;28;20072;-73
2023/09/07 11:53:43;;;;;;;5.18;2.78;;;34.50;51.50;;;;;;5018499;28;20124;-73
2023/09/07 11:56:09;;;;;;;4.90;2.80;;;34.50;50.70;;;;;;5018158;28;20049;-73
2023/09/07 11:58:35;;;;;;;6.28;2.78;;;34.40;50.40;;;;;;5018329;28;20048;-72
2023/09/07 12:01:00;;;;;;;3.20;2.25;;;34.60;50.20;;;;;;5018092;28;20474;-71
2023/09/07 12:03:26;;;;;;;5.25;2.78;;;34.70;50.60;;;;;;5001793;28;20609;-70
2023/09/07 12:05:52;;;;;;;5.43;2.25;;;34.80;50.80;;;;;;5018337;28;20041;-72
2023/09/07 12:08:17;;;;;;;6.43;3.00;;;34.90;49.60;;;;;;5017902;28;20425;-72
2023/09/07 12:10:43;;;;;;;4.43;2.70;;;35.10;50.00;;;;;;5017838;28;20098;-73
2023/09/07 12:13:08;;;;;;;7.45;2.70;;;35.20;49.40;;;;;;5017842;28;20044;-73
2023/09/07 12:15:35;;;;;;;6.80;2.88;;;35.20;49.60;;;;;;5017677;28;20045;-73
2023/09/07 12:18:00;;;;;;;5.97;2.33;;;35.30;48.70;;;;;;5017727;28;20494;-73
2023/09/07 12:20:26;;;;;;;4.97;2.88;;;35.30;47.80;;;;;;5017584;28;20087;-72
2023/09/07 12:22:51;;;;;;;6.63;2.53;;;35.30;47.90;;;;;;5017667;28;20044;-72
2023/09/07 12:25:17;;;;;;;4.10;2.60;;;35.40;47.20;;;;;;5017638;28;20042;-72
2023/09/07 12:27:43;;;;;;;5.07;2.65;;;35.40;47.50;;;;;;5017559;28;20124;-72
2023/09/07 12:30:12;;;;;;;3.13;2.63;;;35.30;47.60;;;;;;5017759;28;20041;-72
2023/09/07 12:32:41;;;;;;;5.95;2.65;;;35.30;47.10;;;;;;5017473;28;20068;-72
2023/09/07 12:35:08;;;;;;;3.65;2.40;;;35.30;46.50;;;;;;5017740;28;20049;-71
2023/09/07 12:37:35;;;;;;;5.13;2.65;;;35.40;47.60;;;;;;5017380;28;20077;-70
2023/09/07 12:40:05;;;;;;;3.55;2.50;;;35.50;47.50;;;;;;5017571;28;20060;-70
2023/09/07 12:42:31;;;;;;;5.60;2.58;;;35.60;46.40;;;;;;5017484;28;20119;-70
2023/09/07 12:44:56;;;;;;;5.78;2.72;;;35.60;46.20;;;;;;5017275;28;20486;-70
2023/09/07 12:47:22;;;;;;;5.38;2.58;;;35.60;46.30;;;;;;5017235;28;20041;-68